Aviation Digital Data Service (ADDS)

Output produced by METARs form (0214 UTC 31 August 2014)
found at http://aviationweather.gov/adds/metars/
 
KMHT 302331Z 3100/3124 20007KT P6SM SCT250 
     FM310300 20006KT P6SM BKN150 
     FM310700 20006KT P6SM BKN020 
     FM310900 21006KT 6SM BR BKN010 
     FM311500 22008KT P6SM BKN025 
     FM311700 22009KT P6SM BKN130 
     FM312200 22006KT 5SM -SHRA VCTS OVC060CB